sensor_id;sensor_type;location;lat;lon;timestamp;P1;durP1;ratioP1;P2;durP2;ratioP2
40815;SDS011;26535;48.788;9.214;2023-05-14T05:02:43;10.38;;;7.47;;
40815;SDS011;26535;48.788;9.214;2023-05-14T05:05:09;10.32;;;7.35;;
40815;SDS011;26535;48.788;9.214;2023-05-14T05:07:35;11.45;;;7.85;;
40815;SDS011;26535;48.788;9.214;2023-05-14T05:10:01;11.73;;;7.47;;
40815;SDS011;26535;48.788;9.214;2023-05-14T05:12:26;9.23;;;7.55;;
40815;SDS011;26535;48.788;9.214;2023-05-14T05:14:57;10.02;;;7.60;;
40815;SDS011;26535;48.788;9.214;2023-05-14T05:19:49;9.27;;;7.30;;
40815;SDS011;26535;48.788;9.214;2023-05-14T05:22:15;10.80;;;7.10;;
40815;SDS011;26535;48.788;9.214;2023-05-14T05:24:40;9.57;;;7.05;;
40815;SDS011;26535;48.788;9.214;2023-05-14T05:27:06;8.90;;;6.95;;
40815;SDS011;26535;48.788;9.214;2023-05-14T05:29:32;9.25;;;7.05;;
40815;SDS011;26535;48.788;9.214;2023-05-14T05:31:58;10.38;;;7.50;;
40815;SDS011;26535;48.788;9.214;2023-05-14T05:34:24;9.35;;;7.05;;
40815;SDS011;26535;48.788;9.214;2023-05-14T05:36:50;8.80;;;6.95;;
40815;SDS011;26535;48.788;9.214;2023-05-14T05:39:16;10.02;;;7.10;;
40815;SDS011;26535;48.788;9.214;2023-05-14T05:41:41;9.10;;;6.65;;
40815;SDS011;26535;48.788;9.214;2023-05-14T05:44:08;9.18;;;7.07;;
40815;SDS011;26535;48.788;9.214;2023-05-14T05:46:34;10.60;;;7.75;;
40815;SDS011;26535;48.788;9.214;2023-05-14T05:48:59;12.55;;;8.35;;
40815;SDS011;26535;48.788;9.214;2023-05-14T05:51:25;9.65;;;7.57;;
40815;SDS011;26535;48.788;9.214;2023-05-14T05:53:51;9.77;;;7.57;;
40815;SDS011;26535;48.788;9.214;2023-05-14T05:56:16;8.45;;;6.65;;
40815;SDS011;26535;48.788;9.214;2023-05-14T05:58:42;8.80;;;7.10;;
40815;SDS011;26535;48.788;9.214;2023-05-14T06:01:08;9.02;;;6.65;;
40815;SDS011;26535;48.788;9.214;2023-05-14T06:03:34;9.00;;;7.30;;
40815;SDS011;26535;48.788;9.214;2023-05-14T06:05:59;9.52;;;7.63;;
40815;SDS011;26535;48.788;9.214;2023-05-14T06:08:25;8.77;;;6.50;;
40815;SDS011;26535;48.788;9.214;2023-05-14T06:10:51;8.75;;;7.15;;
40815;SDS011;26535;48.788;9.214;2023-05-14T06:13:16;9.10;;;7.05;;
40815;SDS011;26535;48.788;9.214;2023-05-14T06:15:42;10.57;;;7.05;;
40815;SDS011;26535;48.788;9.214;2023-05-14T06:18:08;10.20;;;6.78;;
40815;SDS011;26535;48.788;9.214;2023-05-14T06:20:34;9.73;;;6.90;;
40815;SDS011;26535;48.788;9.214;2023-05-14T06:22:59;8.98;;;7.15;;
40815;SDS011;26535;48.788;9.214;2023-05-14T06:25:25;9.23;;;6.38;;
40815;SDS011;26535;48.788;9.214;2023-05-14T06:27:51;9.57;;;7.00;;
40815;SDS011;26535;48.788;9.214;2023-05-14T06:30:16;10.02;;;6.70;;
40815;SDS011;26535;48.788;9.214;2023-05-14T06:32:42;8.38;;;6.60;;
40815;SDS011;26535;48.788;9.214;2023-05-14T06:35:08;9.05;;;6.07;;
40815;SDS011;26535;48.788;9.214;2023-05-14T06:37:34;8.55;;;6.85;;
40815;SDS011;26535;48.788;9.214;2023-05-14T06:40:00;8.88;;;6.85;;
40815;SDS011;26535;48.788;9.214;2023-05-14T06:42:26;8.60;;;6.55;;
40815;SDS011;26535;48.788;9.214;2023-05-14T06:44:52;8.73;;;6.50;;
40815;SDS011;26535;48.788;9.214;2023-05-14T06:47:18;8.88;;;6.93;;
40815;SDS011;26535;48.788;9.214;2023-05-14T06:49:44;7.57;;;6.43;;
40815;SDS011;26535;48.788;9.214;2023-05-14T06:52:10;7.88;;;6.32;;
40815;SDS011;26535;48.788;9.214;2023-05-14T06:54:36;9.40;;;7.10;;
40815;SDS011;26535;48.788;9.214;2023-05-14T06:57:02;7.93;;;5.93;;
40815;SDS011;26535;48.788;9.214;2023-05-14T06:59:27;8.60;;;6.80;;
40815;SDS011;26535;48.788;9.214;2023-05-14T07:01:53;7.72;;;6.38;;
40815;SDS011;26535;48.788;9.214;2023-05-14T07:04:19;8.13;;;6.97;;
40815;SDS011;26535;48.788;9.214;2023-05-14T07:06:45;8.77;;;6.22;;
40815;SDS011;26535;48.788;9.214;2023-05-14T07:09:11;8.77;;;6.70;;
40815;SDS011;26535;48.788;9.214;2023-05-14T07:11:37;8.88;;;6.30;;
40815;SDS011;26535;48.788;9.214;2023-05-14T07:14:03;8.20;;;6.63;;
40815;SDS011;26535;48.788;9.214;2023-05-14T07:16:28;9.68;;;6.43;;
40815;SDS011;26535;48.788;9.214;2023-05-14T07:18:54;7.90;;;5.82;;
40815;SDS011;26535;48.788;9.214;2023-05-14T07:21:20;9.70;;;6.72;;
40815;SDS011;26535;48.788;9.214;2023-05-14T07:23:46;8.75;;;6.63;;
40815;SDS011;26535;48.788;9.214;2023-05-14T07:26:11;9.38;;;6.55;;
40815;SDS011;26535;48.788;9.214;2023-05-14T07:28:37;10.02;;;6.55;;
40815;SDS011;26535;48.788;9.214;2023-05-14T07:31:03;9.40;;;6.32;;
40815;SDS011;26535;48.788;9.214;2023-05-14T07:33:33;7.65;;;5.88;;
40815;SDS011;26535;48.788;9.214;2023-05-14T07:36:00;7.13;;;5.50;;
40815;SDS011;26535;48.788;9.214;2023-05-14T07:38:26;9.57;;;6.95;;
40815;SDS011;26535;48.788;9.214;2023-05-14T07:40:52;8.75;;;5.90;;
40815;SDS011;26535;48.788;9.214;2023-05-14T07:43:17;8.63;;;7.18;;
40815;SDS011;26535;48.788;9.214;2023-05-14T07:45:43;7.45;;;5.93;;
40815;SDS011;26535;48.788;9.214;2023-05-14T07:48:09;10.73;;;6.18;;
40815;SDS011;26535;48.788;9.214;2023-05-14T07:50:35;7.85;;;6.10;;
40815;SDS011;26535;48.788;9.214;2023-05-14T07:53:02;9.10;;;6.75;;
40815;SDS011;26535;48.788;9.214;2023-05-14T07:55:27;7.43;;;5.60;;
40815;SDS011;26535;48.788;9.214;2023-05-14T07:57:53;8.80;;;6.32;;
40815;SDS011;26535;48.788;9.214;2023-05-14T08:00:19;8.63;;;6.55;;
40815;SDS011;26535;48.788;9.214;2023-05-14T08:02:45;8.25;;;6.30;;
40815;SDS011;26535;48.788;9.214;2023-05-14T08:05:12;9.82;;;6.15;;
40815;SDS011;26535;48.788;9.214;2023-05-14T08:07:38;12.40;;;6.22;;
40815;SDS011;26535;48.788;9.214;2023-05-14T08:10:04;8.65;;;6.45;;
40815;SDS011;26535;48.788;9.214;2023-05-14T08:12:31;7.07;;;5.80;;
40815;SDS011;26535;48.788;9.214;2023-05-14T08:14:57;7.65;;;6.30;;
40815;SDS011;26535;48.788;9.214;2023-05-14T08:17:23;8.45;;;5.97;;
40815;SDS011;26535;48.788;9.214;2023-05-14T08:19:48;8.25;;;6.15;;
40815;SDS011;26535;48.788;9.214;2023-05-14T08:22:14;7.85;;;6.30;;
40815;SDS011;26535;48.788;9.214;2023-05-14T08:24:40;7.68;;;6.25;;
40815;SDS011;26535;48.788;9.214;2023-05-14T08:27:07;9.13;;;7.10;;
40815;SDS011;26535;48.788;9.214;2023-05-14T08:29:33;8.23;;;6.68;;
40815;SDS011;26535;48.788;9.214;2023-05-14T08:31:59;8.27;;;6.47;;
40815;SDS011;26535;48.788;9.214;2023-05-14T08:34:25;11.63;;;6.65;;
40815;SDS011;26535;48.788;9.214;2023-05-14T08:36:52;8.30;;;6.47;;
40815;SDS011;26535;48.788;9.214;2023-05-14T08:39:17;8.90;;;6.88;;
40815;SDS011;26535;48.788;9.214;2023-05-14T08:41:43;7.90;;;6.38;;
40815;SDS011;26535;48.788;9.214;2023-05-14T08:51:51;6.90;;;5.90;;
40815;SDS011;26535;48.788;9.214;2023-05-14T08:54:17;9.75;;;6.43;;
40815;SDS011;26535;48.788;9.214;2023-05-14T08:56:43;7.68;;;6.88;;
40815;SDS011;26535;48.788;9.214;2023-05-14T08:59:12;8.68;;;6.97;;
40815;SDS011;26535;48.788;9.214;2023-05-14T09:01:41;7.30;;;5.72;;
40815;SDS011;26535;48.788;9.214;2023-05-14T09:04:10;9.52;;;6.75;;
40815;SDS011;26535;48.788;9.214;2023-05-14T09:06:38;10.32;;;7.40;;
40815;SDS011;26535;48.788;9.214;2023-05-14T09:09:06;7.97;;;6.90;;
40815;SDS011;26535;48.788;9.214;2023-05-14T09:11:31;7.43;;;6.55;;
40815;SDS011;26535;48.788;9.214;2023-05-14T09:13:57;8.15;;;6.40;;
40815;SDS011;26535;48.788;9.214;2023-05-14T09:16:24;9.10;;;7.10;;
40815;SDS011;26535;48.788;9.214;2023-05-14T09:18:50;9.33;;;6.90;;
40815;SDS011;26535;48.788;9.214;2023-05-14T09:21:16;8.18;;;6.65;;
40815;SDS011;26535;48.788;9.214;2023-05-14T09:23:43;11.23;;;7.50;;
40815;SDS011;26535;48.788;9.214;2023-05-14T09:26:09;7.90;;;6.57;;
40815;SDS011;26535;48.788;9.214;2023-05-14T09:28:39;12.82;;;7.53;;
40815;SDS011;26535;48.788;9.214;2023-05-14T09:31:09;8.25;;;6.72;;
40815;SDS011;26535;48.788;9.214;2023-05-14T09:33:34;8.10;;;6.88;;
40815;SDS011;26535;48.788;9.214;2023-05-14T09:36:01;8.95;;;6.82;;
40815;SDS011;26535;48.788;9.214;2023-05-14T09:38:30;8.63;;;6.60;;
40815;SDS011;26535;48.788;9.214;2023-05-14T09:40:57;7.57;;;6.35;;
40815;SDS011;26535;48.788;9.214;2023-05-14T09:43:23;10.50;;;7.20;;
40815;SDS011;26535;48.788;9.214;2023-05-14T09:45:50;7.15;;;5.68;;
40815;SDS011;26535;48.788;9.214;2023-05-14T09:48:19;6.95;;;4.60;;
40815;SDS011;26535;48.788;9.214;2023-05-14T09:50:46;6.78;;;4.88;;
40815;SDS011;26535;48.788;9.214;2023-05-14T09:53:12;5.63;;;4.72;;
40815;SDS011;26535;48.788;9.214;2023-05-14T09:55:38;7.20;;;5.00;;
40815;SDS011;26535;48.788;9.214;2023-05-14T09:58:04;6.25;;;4.65;;
40815;SDS011;26535;48.788;9.214;2023-05-14T10:00:33;8.55;;;5.15;;
40815;SDS011;26535;48.788;9.214;2023-05-14T10:03:02;8.10;;;5.00;;
40815;SDS011;26535;48.788;9.214;2023-05-14T10:05:35;6.28;;;4.70;;
40815;SDS011;26535;48.788;9.214;2023-05-14T10:08:11;6.38;;;3.92;;
40815;SDS011;26535;48.788;9.214;2023-05-14T10:10:39;5.10;;;4.32;;
40815;SDS011;26535;48.788;9.214;2023-05-14T10:13:14;5.68;;;4.10;;
40815;SDS011;26535;48.788;9.214;2023-05-14T10:16:32;7.38;;;5.43;;
40815;SDS011;26535;48.788;9.214;2023-05-14T10:18:52;6.05;;;4.55;;
40815;SDS011;26535;48.788;9.214;2023-05-14T10:21:22;6.78;;;4.43;;
40815;SDS011;26535;48.788;9.214;2023-05-14T10:23:50;5.40;;;4.35;;
40815;SDS011;26535;48.788;9.214;2023-05-14T10:26:16;6.20;;;4.47;;
40815;SDS011;26535;48.788;9.214;2023-05-14T10:28:42;6.05;;;4.70;;
40815;SDS011;26535;48.788;9.214;2023-05-14T10:31:08;7.20;;;4.60;;
40815;SDS011;26535;48.788;9.214;2023-05-14T10:33:47;8.00;;;4.90;;
40815;SDS011;26535;48.788;9.214;2023-05-14T10:36:14;5.53;;;4.30;;
40815;SDS011;26535;48.788;9.214;2023-05-14T10:38:44;6.55;;;5.03;;
40815;SDS011;26535;48.788;9.214;2023-05-14T10:41:12;6.53;;;4.25;;
40815;SDS011;26535;48.788;9.214;2023-05-14T10:43:47;4.88;;;4.13;;
40815;SDS011;26535;48.788;9.214;2023-05-14T10:46:14;4.85;;;3.70;;
40815;SDS011;26535;48.788;9.214;2023-05-14T10:48:40;6.28;;;4.60;;
40815;SDS011;26535;48.788;9.214;2023-05-14T10:51:07;6.13;;;4.32;;
40815;SDS011;26535;48.788;9.214;2023-05-14T10:53:36;4.13;;;3.20;;
40815;SDS011;26535;48.788;9.214;2023-05-14T10:58:36;6.18;;;3.95;;
40815;SDS011;26535;48.788;9.214;2023-05-14T11:01:06;6.80;;;5.25;;
40815;SDS011;26535;48.788;9.214;2023-05-14T11:03:40;6.30;;;5.03;;
40815;SDS011;26535;48.788;9.214;2023-05-14T11:06:11;9.77;;;5.90;;
40815;SDS011;26535;48.788;9.214;2023-05-14T11:08:38;7.30;;;5.18;;
40815;SDS011;26535;48.788;9.214;2023-05-14T11:11:04;7.03;;;5.47;;
40815;SDS011;26535;48.788;9.214;2023-05-14T11:13:31;8.70;;;5.32;;
40815;SDS011;26535;48.788;9.214;2023-05-14T11:15:58;6.47;;;5.32;;
40815;SDS011;26535;48.788;9.214;2023-05-14T11:18:28;7.68;;;5.07;;
40815;SDS011;26535;48.788;9.214;2023-05-14T11:20:59;6.60;;;5.47;;
40815;SDS011;26535;48.788;9.214;2023-05-14T11:23:25;6.53;;;5.15;;
40815;SDS011;26535;48.788;9.214;2023-05-14T11:25:52;8.10;;;5.38;;
40815;SDS011;26535;48.788;9.214;2023-05-14T11:28:21;5.72;;;4.65;;
40815;SDS011;26535;48.788;9.214;2023-05-14T11:30:48;5.15;;;3.97;;
40815;SDS011;26535;48.788;9.214;2023-05-14T11:33:15;4.20;;;3.30;;
40815;SDS011;26535;48.788;9.214;2023-05-14T11:35:42;5.90;;;4.80;;
40815;SDS011;26535;48.788;9.214;2023-05-14T11:38:19;5.83;;;3.90;;
40815;SDS011;26535;48.788;9.214;2023-05-14T11:40:54;4.68;;;3.65;;
40815;SDS011;26535;48.788;9.214;2023-05-14T11:43:21;4.85;;;4.07;;
40815;SDS011;26535;48.788;9.214;2023-05-14T11:45:48;6.60;;;4.32;;
40815;SDS011;26535;48.788;9.214;2023-05-14T11:48:16;5.40;;;4.25;;
40815;SDS011;26535;48.788;9.214;2023-05-14T11:50:51;5.13;;;4.18;;
40815;SDS011;26535;48.788;9.214;2023-05-14T11:53:24;4.53;;;3.70;;
40815;SDS011;26535;48.788;9.214;2023-05-14T11:55:51;5.93;;;4.20;;
40815;SDS011;26535;48.788;9.214;2023-05-14T11:58:24;6.63;;;4.43;;
40815;SDS011;26535;48.788;9.214;2023-05-14T12:00:50;4.50;;;3.50;;
40815;SDS011;26535;48.788;9.214;2023-05-14T12:03:17;4.73;;;3.70;;
40815;SDS011;26535;48.788;9.214;2023-05-14T12:05:54;4.50;;;3.80;;
40815;SDS011;26535;48.788;9.214;2023-05-14T12:08:30;4.65;;;3.80;;
40815;SDS011;26535;48.788;9.214;2023-05-14T12:10:57;5.03;;;4.07;;
40815;SDS011;26535;48.788;9.214;2023-05-14T12:13:24;5.20;;;4.07;;
40815;SDS011;26535;48.788;9.214;2023-05-14T12:15:55;5.28;;;3.95;;
40815;SDS011;26535;48.788;9.214;2023-05-14T12:18:26;5.07;;;3.53;;
40815;SDS011;26535;48.788;9.214;2023-05-14T12:21:00;4.68;;;3.60;;
40815;SDS011;26535;48.788;9.214;2023-05-14T12:23:28;4.93;;;2.95;;
40815;SDS011;26535;48.788;9.214;2023-05-14T12:26:00;4.57;;;3.13;;
40815;SDS011;26535;48.788;9.214;2023-05-14T12:28:33;4.55;;;3.35;;
40815;SDS011;26535;48.788;9.214;2023-05-14T12:30:59;5.43;;;3.72;;
40815;SDS011;26535;48.788;9.214;2023-05-14T12:33:25;4.13;;;2.90;;
40815;SDS011;26535;48.788;9.214;2023-05-14T12:35:52;4.50;;;2.88;;
40815;SDS011;26535;48.788;9.214;2023-05-14T12:38:18;3.92;;;2.95;;
40815;SDS011;26535;48.788;9.214;2023-05-14T12:40:44;3.95;;;2.38;;
40815;SDS011;26535;48.788;9.214;2023-05-14T12:43:10;3.65;;;2.10;;
40815;SDS011;26535;48.788;9.214;2023-05-14T12:45:35;3.10;;;2.25;;
40815;SDS011;26535;48.788;9.214;2023-05-14T12:48:01;2.92;;;2.03;;
40815;SDS011;26535;48.788;9.214;2023-05-14T12:50:27;3.25;;;2.47;;
40815;SDS011;26535;48.788;9.214;2023-05-14T12:52:53;3.50;;;2.17;;
40815;SDS011;26535;48.788;9.214;2023-05-14T12:55:19;3.40;;;2.80;;
40815;SDS011;26535;48.788;9.214;2023-05-14T12:57:44;4.43;;;2.97;;
40815;SDS011;26535;48.788;9.214;2023-05-14T13:00:10;6.63;;;3.65;;
40815;SDS011;26535;48.788;9.214;2023-05-14T13:02:36;3.38;;;2.53;;
40815;SDS011;26535;48.788;9.214;2023-05-14T13:05:02;3.17;;;2.10;;
40815;SDS011;26535;48.788;9.214;2023-05-14T13:07:28;3.80;;;1.80;;
40815;SDS011;26535;48.788;9.214;2023-05-14T13:09:54;2.92;;;2.08;;
40815;SDS011;26535;48.788;9.214;2023-05-14T13:12:21;3.63;;;1.95;;
40815;SDS011;26535;48.788;9.214;2023-05-14T13:14:47;2.45;;;2.00;;
40815;SDS011;26535;48.788;9.214;2023-05-14T13:17:13;3.28;;;2.55;;
40815;SDS011;26535;48.788;9.214;2023-05-14T13:19:39;3.50;;;2.30;;
40815;SDS011;26535;48.788;9.214;2023-05-14T13:22:05;4.63;;;2.88;;
40815;SDS011;26535;48.788;9.214;2023-05-14T13:24:30;4.60;;;2.65;;
40815;SDS011;26535;48.788;9.214;2023-05-14T13:26:56;3.65;;;2.78;;
40815;SDS011;26535;48.788;9.214;2023-05-14T13:29:22;3.53;;;2.28;;
40815;SDS011;26535;48.788;9.214;2023-05-14T13:31:48;3.92;;;2.47;;
40815;SDS011;26535;48.788;9.214;2023-05-14T13:34:13;5.28;;;2.50;;
40815;SDS011;26535;48.788;9.214;2023-05-14T13:36:40;4.65;;;2.78;;
40815;SDS011;26535;48.788;9.214;2023-05-14T13:39:08;4.10;;;2.88;;
40815;SDS011;26535;48.788;9.214;2023-05-14T13:41:36;4.10;;;2.60;;
40815;SDS011;26535;48.788;9.214;2023-05-14T13:44:02;3.63;;;2.70;;
40815;SDS011;26535;48.788;9.214;2023-05-14T13:46:28;3.70;;;2.88;;
40815;SDS011;26535;48.788;9.214;2023-05-14T13:48:54;3.97;;;2.80;;
40815;SDS011;26535;48.788;9.214;2023-05-14T13:51:21;4.57;;;2.50;;
40815;SDS011;26535;48.788;9.214;2023-05-14T13:53:47;4.00;;;2.67;;
40815;SDS011;26535;48.788;9.214;2023-05-14T13:56:12;3.83;;;2.50;;
40815;SDS011;26535;48.788;9.214;2023-05-14T13:58:38;5.20;;;2.80;;
40815;SDS011;26535;48.788;9.214;2023-05-14T14:01:04;4.28;;;2.53;;
40815;SDS011;26535;48.788;9.214;2023-05-14T14:03:29;3.88;;;3.00;;
40815;SDS011;26535;48.788;9.214;2023-05-14T14:05:55;4.10;;;2.85;;
40815;SDS011;26535;48.788;9.214;2023-05-14T14:08:21;3.95;;;2.70;;
40815;SDS011;26535;48.788;9.214;2023-05-14T14:10:46;3.65;;;2.67;;
40815;SDS011;26535;48.788;9.214;2023-05-14T14:13:12;3.28;;;2.60;;
40815;SDS011;26535;48.788;9.214;2023-05-14T14:15:38;4.07;;;2.80;;
40815;SDS011;26535;48.788;9.214;2023-05-14T14:18:04;3.20;;;2.45;;
40815;SDS011;26535;48.788;9.214;2023-05-14T14:20:30;5.20;;;2.50;;
40815;SDS011;26535;48.788;9.214;2023-05-14T14:22:56;4.07;;;2.70;;
40815;SDS011;26535;48.788;9.214;2023-05-14T14:25:22;3.25;;;2.50;;
40815;SDS011;26535;48.788;9.214;2023-05-14T14:27:47;5.65;;;2.83;;
40815;SDS011;26535;48.788;9.214;2023-05-14T14:30:15;3.42;;;2.40;;
40815;SDS011;26535;48.788;9.214;2023-05-14T14:32:47;3.80;;;2.42;;
40815;SDS011;26535;48.788;9.214;2023-05-14T14:35:13;3.53;;;2.40;;
40815;SDS011;26535;48.788;9.214;2023-05-14T14:37:41;3.10;;;2.20;;
40815;SDS011;26535;48.788;9.214;2023-05-14T14:40:09;3.47;;;2.05;;
40815;SDS011;26535;48.788;9.214;2023-05-14T14:42:35;4.50;;;2.20;;
40815;SDS011;26535;48.788;9.214;2023-05-14T14:45:05;2.85;;;2.13;;
40815;SDS011;26535;48.788;9.214;2023-05-14T14:47:31;3.25;;;1.98;;
40815;SDS011;26535;48.788;9.214;2023-05-14T14:49:57;2.97;;;1.70;;
40815;SDS011;26535;48.788;9.214;2023-05-14T14:52:23;3.05;;;1.88;;
40815;SDS011;26535;48.788;9.214;2023-05-14T14:54:50;2.63;;;1.95;;
40815;SDS011;26535;48.788;9.214;2023-05-14T14:57:16;2.95;;;1.90;;
40815;SDS011;26535;48.788;9.214;2023-05-14T14:59:42;2.72;;;1.95;;
40815;SDS011;26535;48.788;9.214;2023-05-14T15:02:08;2.47;;;1.63;;
40815;SDS011;26535;48.788;9.214;2023-05-14T15:04:34;3.80;;;1.60;;
40815;SDS011;26535;48.788;9.214;2023-05-14T15:07:00;2.65;;;1.75;;
40815;SDS011;26535;48.788;9.214;2023-05-14T15:09:26;2.65;;;1.70;;
40815;SDS011;26535;48.788;9.214;2023-05-14T15:11:52;3.38;;;1.58;;
40815;SDS011;26535;48.788;9.214;2023-05-14T15:14:18;2.15;;;1.33;;
40815;SDS011;26535;48.788;9.214;2023-05-14T15:16:43;2.47;;;1.67;;
40815;SDS011;26535;48.788;9.214;2023-05-14T15:19:09;2.28;;;1.55;;
40815;SDS011;26535;48.788;9.214;2023-05-14T15:21:35;6.68;;;2.30;;
40815;SDS011;26535;48.788;9.214;2023-05-14T15:24:04;4.40;;;2.30;;
40815;SDS011;26535;48.788;9.214;2023-05-14T15:26:30;6.43;;;2.85;;
40815;SDS011;26535;48.788;9.214;2023-05-14T15:28:55;4.32;;;2.92;;
40815;SDS011;26535;48.788;9.214;2023-05-14T15:31:23;4.18;;;2.72;;
40815;SDS011;26535;48.788;9.214;2023-05-14T15:33:49;5.28;;;2.92;;
40815;SDS011;26535;48.788;9.214;2023-05-14T15:36:16;5.80;;;2.80;;
40815;SDS011;26535;48.788;9.214;2023-05-14T15:38:41;5.13;;;2.33;;
40815;SDS011;26535;48.788;9.214;2023-05-14T15:41:07;4.43;;;2.80;;
40815;SDS011;26535;48.788;9.214;2023-05-14T15:43:33;3.63;;;2.40;;
40815;SDS011;26535;48.788;9.214;2023-05-14T15:45:59;4.35;;;2.83;;
40815;SDS011;26535;48.788;9.214;2023-05-14T15:48:25;3.72;;;2.67;;
40815;SDS011;26535;48.788;9.214;2023-05-14T15:50:51;4.40;;;2.65;;
40815;SDS011;26535;48.788;9.214;2023-05-14T15:53:17;4.85;;;3.53;;
40815;SDS011;26535;48.788;9.214;2023-05-14T15:55:42;3.97;;;2.70;;
40815;SDS011;26535;48.788;9.214;2023-05-14T15:58:08;4.28;;;3.15;;
40815;SDS011;26535;48.788;9.214;2023-05-14T16:00:34;6.70;;;3.30;;
40815;SDS011;26535;48.788;9.214;2023-05-14T16:03:00;5.50;;;3.08;;
40815;SDS011;26535;48.788;9.214;2023-05-14T16:05:26;3.47;;;2.72;;
40815;SDS011;26535;48.788;9.214;2023-05-14T16:07:51;3.88;;;2.30;;
40815;SDS011;26535;48.788;9.214;2023-05-14T16:10:18;3.45;;;2.42;;
40815;SDS011;26535;48.788;9.214;2023-05-14T16:12:45;4.20;;;2.93;;
40815;SDS011;26535;48.788;9.214;2023-05-14T16:15:10;3.63;;;2.70;;
40815;SDS011;26535;48.788;9.214;2023-05-14T16:17:36;3.30;;;2.13;;
40815;SDS011;26535;48.788;9.214;2023-05-14T16:20:02;2.72;;;2.10;;
40815;SDS011;26535;48.788;9.214;2023-05-14T16:22:29;2.75;;;2.30;;
40815;SDS011;26535;48.788;9.214;2023-05-14T16:24:57;3.05;;;2.28;;
40815;SDS011;26535;48.788;9.214;2023-05-14T16:27:23;3.78;;;2.13;;
40815;SDS011;26535;48.788;9.214;2023-05-14T16:29:49;2.63;;;1.83;;
40815;SDS011;26535;48.788;9.214;2023-05-14T16:32:14;2.55;;;1.83;;
40815;SDS011;26535;48.788;9.214;2023-05-14T16:34:40;2.75;;;2.15;;
40815;SDS011;26535;48.788;9.214;2023-05-14T16:37:11;2.67;;;2.08;;
40815;SDS011;26535;48.788;9.214;2023-05-14T16:39:37;3.05;;;2.30;;
40815;SDS011;26535;48.788;9.214;2023-05-14T16:42:03;5.80;;;2.42;;
40815;SDS011;26535;48.788;9.214;2023-05-14T16:44:29;3.65;;;2.67;;
40815;SDS011;26535;48.788;9.214;2023-05-14T16:46:55;2.63;;;2.20;;
40815;SDS011;26535;48.788;9.214;2023-05-14T16:49:21;4.38;;;2.38;;
40815;SDS011;26535;48.788;9.214;2023-05-14T16:51:47;4.55;;;2.65;;
40815;SDS011;26535;48.788;9.214;2023-05-14T16:54:13;5.20;;;2.65;;
40815;SDS011;26535;48.788;9.214;2023-05-14T16:56:38;4.28;;;2.45;;
40815;SDS011;26535;48.788;9.214;2023-05-14T16:59:05;4.57;;;2.40;;
40815;SDS011;26535;48.788;9.214;2023-05-14T17:01:31;3.33;;;2.40;;
40815;SDS011;26535;48.788;9.214;2023-05-14T17:03:57;3.65;;;2.35;;
40815;SDS011;26535;48.788;9.214;2023-05-14T17:06:23;6.95;;;2.63;;
40815;SDS011;26535;48.788;9.214;2023-05-14T17:08:49;3.08;;;2.28;;
40815;SDS011;26535;48.788;9.214;2023-05-14T17:11:15;3.15;;;2.00;;
40815;SDS011;26535;48.788;9.214;2023-05-14T17:13:40;4.35;;;2.17;;
40815;SDS011;26535;48.788;9.214;2023-05-14T17:16:06;4.43;;;2.30;;
40815;SDS011;26535;48.788;9.214;2023-05-14T17:18:32;4.00;;;2.60;;
40815;SDS011;26535;48.788;9.214;2023-05-14T17:20:57;4.30;;;2.90;;
40815;SDS011;26535;48.788;9.214;2023-05-14T17:23:23;3.90;;;2.35;;
40815;SDS011;26535;48.788;9.214;2023-05-14T17:25:49;3.90;;;2.60;;
40815;SDS011;26535;48.788;9.214;2023-05-14T17:28:15;4.50;;;2.80;;
40815;SDS011;26535;48.788;9.214;2023-05-14T17:30:40;5.05;;;2.90;;
40815;SDS011;26535;48.788;9.214;2023-05-14T17:33:06;5.63;;;3.28;;
40815;SDS011;26535;48.788;9.214;2023-05-14T17:35:32;4.63;;;3.10;;
40815;SDS011;26535;48.788;9.214;2023-05-14T17:38:00;5.72;;;3.17;;
40815;SDS011;26535;48.788;9.214;2023-05-14T17:40:27;4.63;;;3.05;;
40815;SDS011;26535;48.788;9.214;2023-05-14T17:42:52;6.05;;;3.85;;
40815;SDS011;26535;48.788;9.214;2023-05-14T17:45:18;6.10;;;3.58;;
40815;SDS011;26535;48.788;9.214;2023-05-14T17:47:47;4.53;;;3.08;;
40815;SDS011;26535;48.788;9.214;2023-05-14T17:50:15;4.22;;;2.75;;
40815;SDS011;26535;48.788;9.214;2023-05-14T17:52:41;4.07;;;3.10;;
40815;SDS011;26535;48.788;9.214;2023-05-14T17:55:08;3.13;;;2.33;;
40815;SDS011;26535;48.788;9.214;2023-05-14T17:57:34;5.15;;;2.95;;
40815;SDS011;26535;48.788;9.214;2023-05-14T18:00:01;3.72;;;2.40;;
40815;SDS011;26535;48.788;9.214;2023-05-14T18:02:36;4.40;;;2.53;;
40815;SDS011;26535;48.788;9.214;2023-05-14T18:05:02;4.45;;;2.70;;
40815;SDS011;26535;48.788;9.214;2023-05-14T18:07:28;3.75;;;2.83;;
40815;SDS011;26535;48.788;9.214;2023-05-14T18:09:54;4.88;;;2.60;;
40815;SDS011;26535;48.788;9.214;2023-05-14T18:12:20;3.83;;;2.78;;
40815;SDS011;26535;48.788;9.214;2023-05-14T18:14:46;4.43;;;2.97;;
40815;SDS011;26535;48.788;9.214;2023-05-14T18:17:12;4.22;;;2.42;;
40815;SDS011;26535;48.788;9.214;2023-05-14T18:19:37;3.50;;;2.80;;
40815;SDS011;26535;48.788;9.214;2023-05-14T18:22:05;4.45;;;2.90;;
40815;SDS011;26535;48.788;9.214;2023-05-14T18:24:30;3.40;;;2.45;;
40815;SDS011;26535;48.788;9.214;2023-05-14T18:26:56;6.00;;;2.80;;
40815;SDS011;26535;48.788;9.214;2023-05-14T18:29:23;4.45;;;2.75;;
40815;SDS011;26535;48.788;9.214;2023-05-14T18:31:48;4.18;;;2.50;;
40815;SDS011;26535;48.788;9.214;2023-05-14T18:34:14;4.10;;;2.67;;
40815;SDS011;26535;48.788;9.214;2023-05-14T18:36:41;3.97;;;2.90;;
40815;SDS011;26535;48.788;9.214;2023-05-14T18:39:06;5.10;;;2.88;;
40815;SDS011;26535;48.788;9.214;2023-05-14T18:41:32;4.90;;;3.25;;
40815;SDS011;26535;48.788;9.214;2023-05-14T18:43:58;5.97;;;3.70;;
40815;SDS011;26535;48.788;9.214;2023-05-14T18:46:23;4.32;;;3.22;;
40815;SDS011;26535;48.788;9.214;2023-05-14T18:48:50;4.88;;;3.33;;
40815;SDS011;26535;48.788;9.214;2023-05-14T18:51:15;6.25;;;3.30;;
40815;SDS011;26535;48.788;9.214;2023-05-14T18:53:41;5.15;;;3.70;;
40815;SDS011;26535;48.788;9.214;2023-05-14T18:56:07;5.47;;;3.92;;
40815;SDS011;26535;48.788;9.214;2023-05-14T18:58:33;5.63;;;3.60;;
40815;SDS011;26535;48.788;9.214;2023-05-14T19:00:59;6.82;;;4.13;;
40815;SDS011;26535;48.788;9.214;2023-05-14T19:03:25;10.40;;;4.72;;
40815;SDS011;26535;48.788;9.214;2023-05-14T19:05:51;8.60;;;5.32;;
40815;SDS011;26535;48.788;9.214;2023-05-14T19:08:17;6.97;;;4.93;;
40815;SDS011;26535;48.788;9.214;2023-05-14T19:10:43;6.75;;;4.68;;
40815;SDS011;26535;48.788;9.214;2023-05-14T19:13:09;7.15;;;4.50;;
40815;SDS011;26535;48.788;9.214;2023-05-14T19:15:35;7.60;;;4.32;;
40815;SDS011;26535;48.788;9.214;2023-05-14T19:18:01;6.25;;;4.18;;
40815;SDS011;26535;48.788;9.214;2023-05-14T19:20:27;7.15;;;4.40;;
40815;SDS011;26535;48.788;9.214;2023-05-14T19:22:52;6.30;;;3.90;;
40815;SDS011;26535;48.788;9.214;2023-05-14T19:25:18;7.07;;;4.55;;
40815;SDS011;26535;48.788;9.214;2023-05-14T19:27:44;6.50;;;4.28;;
40815;SDS011;26535;48.788;9.214;2023-05-14T19:30:14;6.57;;;4.45;;
40815;SDS011;26535;48.788;9.214;2023-05-14T19:32:40;7.40;;;4.40;;
40815;SDS011;26535;48.788;9.214;2023-05-14T19:35:06;6.43;;;4.70;;
40815;SDS011;26535;48.788;9.214;2023-05-14T19:37:32;10.23;;;4.93;;
40815;SDS011;26535;48.788;9.214;2023-05-14T19:39:58;7.80;;;4.55;;
40815;SDS011;26535;48.788;9.214;2023-05-14T19:42:23;6.88;;;3.88;;
40815;SDS011;26535;48.788;9.214;2023-05-14T19:44:49;7.18;;;5.00;;
40815;SDS011;26535;48.788;9.214;2023-05-14T19:47:15;8.02;;;4.97;;
40815;SDS011;26535;48.788;9.214;2023-05-14T19:49:41;7.15;;;4.85;;
40815;SDS011;26535;48.788;9.214;2023-05-14T19:52:06;6.90;;;4.20;;
40815;SDS011;26535;48.788;9.214;2023-05-14T19:54:32;6.70;;;4.32;;
40815;SDS011;26535;48.788;9.214;2023-05-14T19:56:58;7.55;;;4.85;;
40815;SDS011;26535;48.788;9.214;2023-05-14T19:59:23;7.10;;;4.75;;